Time;durP1;ratioP1;P1;durP2;ratioP2;P2;SDS_P1;SDS_P2;PMS_P1;PMS_P2;Temp;Humidity;BMP_temperature;BMP_pressure;BME280_temperature;BME280_humidity;BME280_pressure;Samples;Min_cycle;Max_cycle;Signal;HPM_P1;HPM_P2
2023/01/11 07:59:50;;;;;;;;;0.00;0.00;;;;;17.50;51.50;101220.84;5076747;27;45898;-74
2023/01/11 08:02:15;;;;;;;;;0.00;0.00;;;;;17.80;52.18;101232.88;5064671;27;45423;-75
2023/01/11 08:04:40;;;;;;;;;1.75;0.00;;;;;18.29;52.82;101259.63;5059546;27;45482;-75
2023/01/11 08:07:06;;;;;;;;;0.00;0.00;;;;;18.75;52.83;101247.00;5069547;28;45365;-76
2023/01/11 08:09:31;;;;;;;;;2.75;2.50;;;;;19.34;53.34;101261.09;5070437;27;45464;-75
2023/01/11 08:14:40;;;;;;;;;1.67;0.00;;;;;20.47;51.99;101263.28;5066203;27;45481;-76
2023/01/11 08:17:07;;;;;;;;;0.00;0.00;;;;;20.97;51.82;101279.66;5064063;27;45655;-76
2023/01/11 08:19:32;;;;;;;;;0.00;0.00;;;;;21.38;51.32;101275.00;5062259;27;45869;-77
2023/01/11 08:21:58;;;;;;;;;2.00;0.00;;;;;21.74;50.99;101282.56;5058749;27;45510;-73
2023/01/11 08:24:23;;;;;;;;;0.00;0.00;;;;;22.08;50.22;101287.50;5058486;27;47186;-73
2023/01/11 08:26:48;;;;;;;;;0.67;0.33;;;;;22.37;49.85;101289.28;5063714;27;45641;-75
2023/01/11 08:29:14;;;;;;;;;0.67;0.67;;;;;22.64;48.77;101295.75;5059641;27;51420;-74
2023/01/11 08:31:43;;;;;;;;;0.00;0.00;;;;;22.88;48.93;101299.78;5060977;27;45452;-70
2023/01/11 08:34:08;;;;;;;;;1.00;1.00;;;;;23.01;48.31;101296.72;5055442;27;45534;-72
2023/01/11 08:36:33;;;;;;;;;0.67;0.67;;;;;23.25;47.79;101305.25;5059539;27;45427;-72
2023/01/11 08:38:58;;;;;;;;;1.00;1.00;;;;;23.41;47.53;101312.72;5062363;27;46455;-72
2023/01/11 08:41:24;;;;;;;;;0.00;0.00;;;;;23.54;47.24;101312.38;5060774;27;45471;-72
2023/01/11 08:43:50;;;;;;;;;0.00;0.00;;;;;23.64;46.65;101313.13;5060386;27;45571;-72
2023/01/11 08:46:16;;;;;;;;;1.00;1.00;;;;;23.76;46.72;101321.88;5061392;27;45490;-69
2023/01/11 08:48:42;;;;;;;;;0.33;0.00;;;;;23.90;46.36;101330.44;5065620;27;46471;-69
2023/01/11 08:51:08;;;;;;;;;0.00;0.00;;;;;23.98;46.70;101325.09;5063709;27;45609;-70
2023/01/11 08:53:33;;;;;;;;;1.00;1.00;;;;;24.11;46.04;101334.72;5071144;27;47036;-72
2023/01/11 08:55:59;;;;;;;;;1.33;0.00;;;;;24.19;46.04;101330.19;5072053;27;45470;-73
2023/01/11 08:58:24;;;;;;;;;1.67;0.00;;;;;24.29;45.84;101332.81;5075131;27;45525;-70
2023/01/11 09:00:50;;;;;;;;;0.67;0.00;;;;;24.37;45.66;101332.00;5095424;27;45235;-76
2023/01/11 09:03:17;;;;;;;;;0.00;0.00;;;;;24.44;45.75;101326.78;5092450;27;45487;-75
2023/01/11 09:05:44;;;;;;;;;2.00;0.00;;;;;24.50;45.60;101323.44;5096596;27;45966;-77
2023/01/11 09:08:09;;;;;;;;;1.00;1.00;;;;;24.60;45.06;101336.88;5073351;27;46390;-76
2023/01/11 09:10:35;;;;;;;;;0.00;0.00;;;;;24.69;45.16;101337.78;5079843;27;45716;-76
2023/01/11 09:13:00;;;;;;;;;0.00;0.00;;;;;24.75;45.25;101342.53;5071522;27;45403;-77
2023/01/11 09:15:26;;;;;;;;;3.00;1.00;;;;;24.85;44.99;101359.59;5072239;27;45760;-76
2023/01/11 09:17:52;;;;;;;;;1.00;1.00;;;;;24.90;45.07;101363.69;5065368;27;46178;-76
2023/01/11 09:20:18;;;;;;;;;0.33;0.00;;;;;24.96;44.58;101366.59;5069416;27;45517;-77
2023/01/11 09:22:48;;;;;;;;;0.00;0.00;;;;;25.06;44.43;101371.88;5068472;27;45545;-76
2023/01/11 09:25:14;;;;;;;;;0.67;0.00;;;;;25.12;44.21;101373.09;5069179;27;45643;-74
2023/01/11 09:27:43;;;;;;;;;0.00;0.00;;;;;25.17;44.24;101380.78;5067020;27;46602;-72
2023/01/11 09:30:10;;;;;;;;;0.33;0.00;;;;;25.19;43.88;101379.59;5067368;27;46375;-72
2023/01/11 09:32:36;;;;;;;;;1.33;0.33;;;;;25.22;44.36;101389.28;5049588;27;45538;-75
2023/01/11 09:35:02;;;;;;;;;5.00;2.00;;;;;25.27;44.05;101390.47;5047875;27;45748;-76
2023/01/11 09:37:28;;;;;;;;;5.00;2.00;;;;;25.32;43.94;101397.28;5067066;27;45539;-75
2023/01/11 09:39:53;;;;;;;;;2.00;2.00;;;;;25.34;44.14;101398.81;5063558;27;45629;-75
2023/01/11 09:42:38;;;;;;;;;4.00;4.00;;;;;25.38;43.74;101408.34;5070286;27;46809;-74
2023/01/11 09:45:17;;;;;;;;;2.00;2.00;;;;;25.39;43.74;101420.06;5064020;28;45431;-74
2023/01/11 09:47:49;;;;;;;;;5.33;4.33;;;;;25.44;43.58;101425.00;5069009;28;46377;-72
2023/01/11 09:50:27;;;;;;;;;4.33;4.33;;;;;25.46;43.11;101425.69;5066585;27;45675;-72
2023/01/11 09:52:58;;;;;;;;;8.67;6.00;;;;;25.47;43.15;101441.81;5072747;27;47020;-74
2023/01/11 09:55:51;;;;;;;;;3.67;3.33;;;;;25.47;43.14;101436.38;5066655;27;45865;-73
2023/01/11 09:58:35;;;;;;;;;4.67;4.67;;;;;25.46;43.18;101444.72;5070748;27;46209;-73
2023/01/11 10:01:23;;;;;;;;;4.00;4.00;;;;;25.47;43.01;101447.25;5061823;28;45548;-75
2023/01/11 10:04:12;;;;;;;;;1.33;1.33;;;;;25.47;42.53;101452.69;5076022;28;45408;-71
2023/01/11 10:06:54;;;;;;;;;7.00;4.67;;;;;25.48;42.66;101465.28;5060327;28;46339;-71
2023/01/11 10:09:56;;;;;;;;;5.00;3.00;;;;;25.49;42.79;101463.41;5068591;27;45487;-69
2023/01/11 10:12:30;;;;;;;;;6.00;4.00;;;;;25.43;42.91;101454.06;5071259;28;45408;-71
2023/01/11 10:15:14;;;;;;;;;5.00;3.33;;;;;25.51;42.94;101459.50;5075087;28;45389;-72
2023/01/11 10:17:45;;;;;;;;;3.00;3.00;;;;;25.53;42.48;101457.47;5066563;28;45548;-72
2023/01/11 10:20:23;;;;;;;;;4.67;3.33;;;;;25.56;42.79;101463.63;5068706;27;46263;-72
2023/01/11 10:22:54;;;;;;;;;8.00;4.00;;;;;25.60;42.48;101470.44;5052318;28;46196;-71
2023/01/11 10:25:29;;;;;;;;;2.00;2.00;;;;;25.61;42.53;101467.56;5071602;27;45531;-71
2023/01/11 10:28:06;;;;;;;;;4.00;4.00;;;;;25.62;42.55;101458.38;5084131;27;45788;-72
2023/01/11 10:30:54;;;;;;;;;5.00;3.00;;;;;25.62;42.48;101457.53;5066947;28;45723;-75
2023/01/11 10:36:54;;;;;;;;;2.00;2.00;;;;;25.60;42.43;101455.00;5075814;28;45506;-77
2023/01/11 10:42:20;;;;;;;;;3.00;3.00;;;;;25.64;42.48;101472.69;5074796;28;45413;-77
2023/01/11 10:44:59;;;;;;;;;3.00;3.00;;;;;25.67;42.37;101471.50;5074620;27;45471;-74
2023/01/11 10:47:32;;;;;;;;;3.00;3.00;;;;;25.72;41.94;101484.56;5073663;27;45313;-75
2023/01/11 10:50:23;;;;;;;;;1.00;1.00;;;;;25.72;42.15;101484.56;5073615;27;45506;-73
2023/01/11 10:53:00;;;;;;;;;5.00;4.00;;;;;25.73;42.34;101487.13;5065997;28;46215;-73
2023/01/11 10:55:43;;;;;;;;;9.67;5.33;;;;;25.73;42.35;101481.69;5083450;27;45510;-72
2023/01/11 10:58:36;;;;;;;;;6.67;6.00;;;;;25.73;42.18;101487.13;5073813;28;45439;-72
2023/01/11 11:01:17;;;;;;;;;6.67;5.00;;;;;25.72;42.11;101484.56;5073117;27;45628;-72
2023/01/11 11:03:45;;;;;;;;;4.00;2.00;;;;;25.73;42.15;101491.72;5064478;28;45482;-71
2023/01/11 11:06:32;;;;;;;;;4.33;4.33;;;;;25.73;41.80;101497.16;5069324;28;45550;-72
2023/01/11 11:09:18;;;;;;;;;4.33;4.33;;;;;25.73;41.64;101495.28;5068840;27;45884;-72
2023/01/11 11:11:59;;;;;;;;;5.33;4.00;;;;;25.75;41.48;101500.56;5064098;28;45506;-73
2023/01/11 11:14:41;;;;;;;;;4.67;4.00;;;;;25.73;41.63;101495.28;5073252;28;46738;-70
2023/01/11 11:17:27;;;;;;;;;3.00;3.00;;;;;25.69;41.33;101502.06;5074414;27;45462;-70
2023/01/11 11:19:52;;;;;;;;;5.00;5.00;;;;;25.68;41.24;101507.66;5064181;27;45408;-69
2023/01/11 11:22:19;;;;;;;;;5.67;5.67;;;;;25.65;41.18;101508.84;5069191;27;45852;-70
2023/01/11 11:24:50;;;;;;;;;7.33;5.67;;;;;25.67;41.54;101509.56;5068192;28;46622;-71
2023/01/11 11:27:47;;;;;;;;;6.67;6.00;;;;;25.68;41.61;101510.38;5073383;28;45487;-69
2023/01/11 11:30:23;;;;;;;;;8.33;6.00;;;;;25.67;41.86;101509.56;5067105;27;45845;-72
2023/01/11 11:33:30;;;;;;;;;6.67;5.67;;;;;25.69;41.35;101507.50;5069812;28;45545;-72
2023/01/11 11:36:00;;;;;;;;;2.00;2.00;;;;;25.71;41.86;101508.19;5061243;28;46240;-72
2023/01/11 11:38:29;;;;;;;;;6.33;4.67;;;;;25.72;41.29;101503.59;5072425;27;45553;-73
2023/01/11 11:41:08;;;;;;;;;5.33;5.00;;;;;25.74;41.50;101505.16;5078705;27;45442;-74
2023/01/11 11:43:37;;;;;;;;;3.00;3.00;;;;;25.76;41.26;101510.41;5069417;28;45718;-74
2023/01/11 11:46:15;;;;;;;;;4.00;3.67;;;;;25.78;41.17;101500.22;5071798;28;46531;-72
2023/01/11 11:48:42;;;;;;;;;3.00;3.00;;;;;25.79;41.05;101516.38;5073206;28;46014;-72
2023/01/11 11:51:21;;;;;;;;;6.67;5.00;;;;;25.79;40.96;101516.38;5073345;28;45478;-73
2023/01/11 11:53:54;;;;;;;;;6.33;4.00;;;;;25.79;41.08;101519.09;5072010;28;45452;-72
2023/01/11 11:56:25;;;;;;;;;4.33;3.67;;;;;25.77;41.21;101515.69;5061273;27;46255;-73
2023/01/11 11:58:52;;;;;;;;;4.00;4.00;;;;;25.78;41.30;101522.84;5065886;28;45282;-72
2023/01/11 12:01:31;;;;;;;;;5.67;3.00;;;;;25.77;41.16;101514.84;5072810;28;45449;-72
2023/01/11 12:04:02;;;;;;;;;5.00;5.00;;;;;25.76;40.98;101524.00;5069556;27;45529;-73
2023/01/11 12:06:29;;;;;;;;;5.33;5.33;;;;;25.71;40.56;101515.50;5064385;27;45795;-73
2023/01/11 12:08:59;;;;;;;;;4.67;4.00;;;;;25.68;40.75;101518.53;5073158;28;45396;-72
2023/01/11 12:11:31;;;;;;;;;5.67;4.00;;;;;25.60;40.98;101517.50;5072979;27;45421;-72
2023/01/11 12:14:20;;;;;;;;;5.33;4.00;;;;;25.60;40.90;101525.66;5066453;28;45400;-72
2023/01/11 12:16:46;;;;;;;;;4.67;4.67;;;;;25.57;40.80;101533.28;5052438;27;45617;-70
2023/01/11 12:19:44;;;;;;;;;5.00;5.00;;;;;25.61;40.94;101531.94;5052088;27;45797;-70
2023/01/11 12:22:22;;;;;;;;;3.33;3.33;;;;;25.57;41.15;101527.84;5062752;28;45444;-70
2023/01/11 12:25:18;;;;;;;;;3.67;3.33;;;;;25.54;41.22;101507.25;5069602;27;45513;-70
2023/01/11 12:28:06;;;;;;;;;5.00;4.33;;;;;25.65;41.25;101527.88;5071828;27;45496;-70
2023/01/11 12:30:40;;;;;;;;;6.33;4.67;;;;;25.72;40.58;101533.50;5069973;27;45464;-70
2023/01/11 12:33:27;;;;;;;;;4.33;4.33;;;;;25.84;41.16;101532.22;5069192;28;45681;-70
2023/01/11 12:36:01;;;;;;;;;5.00;3.67;;;;;25.90;40.76;101525.22;5065866;27;45631;-71
2023/01/11 12:38:38;;;;;;;;;4.00;4.00;;;;;25.99;41.33;101534.28;5064966;27;46706;-73
2023/01/11 12:41:43;;;;;;;;;3.67;2.67;;;;;26.05;40.83;101539.91;5077604;27;45392;-73
2023/01/11 12:44:20;;;;;;;;;5.00;3.00;;;;;26.12;40.87;101528.34;5061067;28;45490;-74
2023/01/11 12:47:41;;;;;;;;;5.00;5.00;;;;;26.13;40.68;101522.75;5067848;28;45596;-74
2023/01/11 12:50:20;;;;;;;;;3.33;3.00;;;;;26.13;40.41;101521.91;4961340;28;45564;-75
2023/01/11 12:52:56;;;;;;;;;3.67;2.00;;;;;26.10;40.63;101520.34;4963781;28;45367;-75
2023/01/11 12:55:33;;;;;;;;;4.67;4.67;;;;;26.06;40.63;101535.31;4960252;28;45510;-73
2023/01/11 12:58:17;;;;;;;;;2.67;2.00;;;;;26.03;40.48;101535.63;4965843;28;45591;-74
2023/01/11 13:01:11;;;;;;;;;2.67;2.67;;;;;26.00;40.23;101534.09;4964635;28;46165;-72
2023/01/11 13:04:13;;;;;;;;;10.67;6.00;;;;;26.01;40.13;101529.50;4955975;28;45471;-73
2023/01/11 13:07:15;;;;;;;;;5.67;3.00;;;;;25.97;40.29;101539.88;4959575;28;45791;-75
2023/01/11 13:10:02;;;;;;;;;4.00;3.67;;;;;25.97;40.11;101525.44;4960471;28;45572;-75
2023/01/11 13:13:06;;;;;;;;;3.33;3.33;;;;;25.98;39.83;101518.97;4961958;28;45570;-75
2023/01/11 13:15:47;;;;;;;;;6.67;4.67;;;;;26.01;40.12;101530.38;4958133;28;45542;-76
2023/01/11 13:18:27;;;;;;;;;9.00;3.00;;;;;26.07;40.34;101536.16;4945812;28;45506;-75
2023/01/11 13:20:58;;;;;;;;;5.33;4.33;;;;;26.11;40.49;101538.38;4965378;28;45894;-74
2023/01/11 13:23:28;;;;;;;;;3.67;3.67;;;;;26.18;40.53;101544.88;4955043;28;45482;-75
2023/01/11 13:25:55;;;;;;;;;6.00;6.00;;;;;26.20;39.90;101543.84;4981126;27;45497;-75
2023/01/11 13:28:35;;;;;;;;;7.00;4.33;;;;;26.28;40.43;101541.19;5080254;27;45378;-72
2023/01/11 13:31:04;;;;;;;;;6.00;4.33;;;;;26.32;40.59;101542.50;5076603;27;45475;-77
2023/01/11 13:33:31;;;;;;;;;7.00;5.33;;;;;26.37;40.09;101542.03;5075978;27;45571;-77
2023/01/11 13:35:59;;;;;;;;;3.00;3.00;;;;;26.40;40.37;101547.97;5074914;28;45491;-79
2023/01/11 13:38:41;;;;;;;;;6.67;5.33;;;;;26.48;39.91;101560.75;5072766;28;45593;-76
2023/01/11 13:41:20;;;;;;;;;6.33;5.33;;;;;26.52;40.06;101561.28;5076030;28;47007;-76
2023/01/11 13:44:08;;;;;;;;;7.67;5.00;;;;;26.61;39.71;101567.56;5074023;28;45403;-77
2023/01/11 13:46:44;;;;;;;;;7.33;6.00;;;;;26.63;39.76;101555.47;5075493;27;45512;-76
2023/01/11 13:49:48;;;;;;;;;5.00;3.00;;;;;26.71;39.98;101570.97;5075391;28;45380;-74
2023/01/11 13:52:17;;;;;;;;;4.67;4.67;;;;;26.76;40.20;101559.56;5074851;27;45562;-74
2023/01/11 13:54:51;;;;;;;;;4.67;4.67;;;;;26.82;40.06;101565.16;5071022;27;47499;-74
2023/01/11 13:57:46;;;;;;;;;6.00;4.33;;;;;26.87;40.12;101561.06;5081403;27;45771;-74
2023/01/11 14:00:20;;;;;;;;;4.67;3.67;;;;;26.89;40.09;101559.06;5074054;28;45574;-76
2023/01/11 14:02:57;;;;;;;;;5.00;5.00;;;;;26.92;39.59;101551.38;5070395;28;45570;-75
2023/01/11 14:05:26;;;;;;;;;6.00;4.67;;;;;26.89;39.69;101556.31;5076268;28;46680;-78
2023/01/11 14:07:59;;;;;;;;;4.33;4.33;;;;;26.93;39.99;101565.84;5073842;28;45509;-79
2023/01/11 14:10:34;;;;;;;;;4.00;3.00;;;;;26.92;39.44;101567.72;5059075;27;45292;-76
2023/01/11 14:13:11;;;;;;;;;5.00;4.33;;;;;26.89;39.87;101576.22;5077099;27;45353;-76
2023/01/11 14:15:50;;;;;;;;;3.67;3.67;;;;;26.88;39.33;101577.25;5065121;28;45364;-74
2023/01/11 14:18:37;;;;;;;;;4.67;4.67;;;;;26.90;40.06;101568.91;5071064;27;45515;-74
2023/01/11 14:21:16;;;;;;;;;14.33;11.00;;;;;26.91;39.25;101576.91;5070144;27;45499;-76
2023/01/11 14:23:53;;;;;;;;;8.33;8.33;;;;;26.92;40.06;101570.44;5068725;28;45461;-74
2023/01/11 14:26:46;;;;;;;;;8.67;8.67;;;;;26.93;39.96;101565.84;5051021;28;47144;-74
2023/01/11 14:29:58;;;;;;;;;11.00;11.00;;;;;26.95;40.03;101572.88;5063495;28;45392;-75
2023/01/11 14:32:40;;;;;;;;;14.00;10.00;;;;;26.98;39.23;101574.41;4975845;28;45691;-74
2023/01/11 14:35:31;;;;;;;;;13.00;11.33;;;;;26.99;39.41;101564.34;4969306;28;45625;-72
2023/01/11 14:38:23;;;;;;;;;12.00;10.67;;;;;27.01;39.75;101570.47;4984655;28;45494;-75
2023/01/11 14:41:05;;;;;;;;;12.00;11.00;;;;;26.99;39.70;101572.50;4972720;28;45692;-74
2023/01/11 14:43:39;;;;;;;;;11.33;11.33;;;;;27.01;39.38;101587.66;4988962;28;45428;-73
2023/01/11 14:46:22;;;;;;;;;11.00;11.00;;;;;27.02;39.87;101586.63;4991850;28;45874;-74
2023/01/11 14:49:01;;;;;;;;;19.00;17.33;;;;;27.04;39.70;101592.75;5003266;28;46207;-74
2023/01/11 14:51:33;;;;;;;;;18.33;13.33;;;;;27.06;39.65;101582.53;4990498;28;45504;-73
2023/01/11 14:54:07;;;;;;;;;17.00;15.67;;;;;27.08;39.73;101602.31;4975399;28;45620;-72
2023/01/11 14:56:47;;;;;;;;;16.67;15.67;;;;;27.11;39.68;101592.94;4986185;28;45559;-74
2023/01/11 14:59:25;;;;;;;;;15.33;15.33;;;;;27.16;39.33;101595.13;4989111;28;46989;-73
2023/01/11 15:02:02;;;;;;;;;19.33;19.33;;;;;27.15;39.12;101588.84;4986551;28;45486;-75
2023/01/11 15:04:30;;;;;;;;;14.33;12.00;;;;;27.14;39.55;101581.66;4989636;28;45500;-72
2023/01/11 15:06:56;;;;;;;;;20.00;15.67;;;;;27.14;39.19;101580.84;4985663;28;45759;-72
2023/01/11 15:09:41;;;;;;;;;16.67;15.33;;;;;27.14;39.34;101575.38;5045630;28;46328;-72
2023/01/11 15:12:37;;;;;;;;;26.00;20.33;;;;;27.13;39.76;101592.75;5074907;28;45491;-73
2023/01/11 15:15:15;;;;;;;;;19.33;19.33;;;;;27.16;39.77;101597.84;5066489;27;45394;-73
2023/01/11 15:20:26;;;;;;;;;25.67;22.67;;;;;27.11;39.01;101590.22;5073772;28;45957;-77
2023/01/11 15:23:01;;;;;;;;;18.67;18.00;;;;;27.08;39.43;101588.69;5075740;27;45435;-74
2023/01/11 15:25:29;;;;;;;;;19.00;17.00;;;;;27.03;39.47;101588.34;5054845;28;45464;-76
2023/01/11 15:27:55;;;;;;;;;25.67;23.67;;;;;26.99;39.07;101583.41;5074659;28;45443;-75
2023/01/11 15:30:29;;;;;;;;;23.00;17.33;;;;;26.97;39.22;101591.75;5072163;28;46543;-76
2023/01/11 15:33:16;;;;;;;;;22.33;21.33;;;;;26.95;39.21;101597.38;5081254;27;45443;-75
2023/01/11 15:35:53;;;;;;;;;20.33;16.33;;;;;26.93;38.79;101606.72;5076947;27;45435;-75
2023/01/11 15:39:02;;;;;;;;;20.67;20.00;;;;;26.89;39.42;101616.25;5072317;28;45490;-73
2023/01/11 15:42:04;;;;;;;;;20.67;17.67;;;;;26.83;39.48;101607.75;5056354;28;45865;-76
2023/01/11 15:44:55;;;;;;;;;23.33;18.33;;;;;26.88;39.39;101628.13;5066732;28;45687;-76
2023/01/11 15:47:34;;;;;;;;;19.67;18.33;;;;;26.87;39.06;101632.75;5065898;28;45906;-75
2023/01/11 15:50:21;;;;;;;;;21.67;20.33;;;;;26.87;39.50;101626.44;5073645;28;45298;-76
2023/01/11 15:53:18;;;;;;;;;19.67;18.67;;;;;26.86;38.86;101625.63;5052856;28;46042;-73
2023/01/11 15:56:02;;;;;;;;;23.33;19.33;;;;;26.84;39.55;101633.09;5003376;28;45876;-77
2023/01/11 15:58:52;;;;;;;;;20.00;18.00;;;;;26.83;39.35;101625.94;5002571;28;45404;-77
2023/01/11 16:01:27;;;;;;;;;22.67;20.67;;;;;26.81;39.54;101620.66;5005053;28;45875;-76
2023/01/11 16:04:09;;;;;;;;;45.75;35.25;;;;;26.80;39.62;101620.81;5000587;28;45571;-76
2023/01/11 16:06:34;;;;;;;;;37.75;28.25;;;;;26.79;38.98;101628.16;5002468;28;45630;-76
2023/01/11 16:09:08;;;;;;;;;60.50;44.00;;;;;26.74;38.57;101629.69;5008540;28;45450;-78
2023/01/11 16:12:05;;;;;;;;;47.75;38.50;;;;;26.61;38.59;101620.16;4996984;28;45599;-74
2023/01/11 16:14:58;;;;;;;;;33.25;30.25;;;;;26.47;37.97;101629.81;5009584;28;46371;-76
2023/01/11 16:17:23;;;;;;;;;28.33;22.67;;;;;26.28;37.53;101629.09;4998203;28;45448;-75
2023/01/11 16:19:55;;;;;;;;;27.00;23.50;;;;;26.15;37.82;101636.81;5015340;28;45555;-74
2023/01/11 16:22:24;;;;;;;;;21.67;18.33;;;;;26.02;37.47;101646.31;5017842;28;45249;-76
2023/01/11 16:24:56;;;;;;;;;19.33;17.00;;;;;25.90;37.30;101653.91;5012927;28;47243;-79
2023/01/11 16:27:31;;;;;;;;;14.00;10.33;;;;;25.78;37.42;101650.63;5009211;28;45865;-71
2023/01/11 16:29:57;;;;;;;;;8.33;7.00;;;;;25.69;36.68;101665.19;5005739;28;45574;-75
2023/01/11 16:32:25;;;;;;;;;7.00;5.67;;;;;25.59;37.01;101669.88;5039164;28;45490;-75
2023/01/11 16:34:52;;;;;;;;;4.00;4.00;;;;;25.50;36.95;101661.63;5076494;28;46038;-75
2023/01/11 16:37:37;;;;;;;;;5.00;4.67;;;;;25.39;36.59;101678.22;5062413;28;45697;-74
2023/01/11 16:40:09;;;;;;;;;6.00;5.67;;;;;25.30;36.27;101674.56;5076114;28;45421;-72
2023/01/11 16:42:41;;;;;;;;;6.67;6.33;;;;;25.21;36.44;101670.06;5071076;28;45442;-75
2023/01/11 16:45:12;;;;;;;;;9.00;7.00;;;;;25.17;36.58;101672.25;5070528;28;45388;-75
2023/01/11 16:47:38;;;;;;;;;13.00;10.00;;;;;25.13;35.91;101660.88;5064149;28;45782;-77
2023/01/11 16:50:19;;;;;;;;;21.00;17.00;;;;;25.08;35.85;101651.47;5060994;28;45797;-77
2023/01/11 16:52:52;;;;;;;;;16.00;14.00;;;;;25.04;36.06;101652.78;5074813;28;45588;-75
2023/01/11 16:55:32;;;;;;;;;14.67;14.67;;;;;25.02;36.15;101646.69;5067415;27;46072;-76
2023/01/11 16:58:01;;;;;;;;;17.33;15.33;;;;;25.00;36.14;101654.97;5071057;28;45714;-74
2023/01/11 17:00:34;;;;;;;;;20.33;15.33;;;;;24.94;36.34;101645.63;5063354;27;45522;-78
2023/01/11 17:03:23;;;;;;;;;14.33;12.33;;;;;25.00;36.69;101660.41;5058214;28;46485;-75
2023/01/11 17:06:01;;;;;;;;;15.67;14.33;;;;;24.98;36.51;101660.56;5072172;28;47247;-76
2023/01/11 17:08:26;;;;;;;;;15.00;13.00;;;;;25.04;36.80;101669.94;5075644;28;45419;-79
2023/01/11 17:10:56;;;;;;;;;12.00;12.00;;;;;25.06;36.54;101673.34;5076491;27;45479;-78
2023/01/11 17:13:52;;;;;;;;;15.33;13.67;;;;;25.05;36.48;101660.78;5058810;27;45372;-79
2023/01/11 17:16:21;;;;;;;;;19.67;14.67;;;;;25.07;36.81;101672.38;5073093;27;46370;-77
2023/01/11 17:18:46;;;;;;;;;13.00;12.67;;;;;25.08;36.78;101671.34;5071373;27;45625;-79
2023/01/11 17:21:22;;;;;;;;;16.00;16.00;;;;;25.06;36.25;101672.53;5067972;27;45341;-79
2023/01/11 17:23:48;;;;;;;;;13.00;11.67;;;;;25.07;36.32;101675.09;5073371;27;45420;-80
2023/01/11 17:26:19;;;;;;;;;14.00;14.00;;;;;25.04;36.67;101669.94;5066734;28;45429;-78
2023/01/11 17:28:48;;;;;;;;;13.67;10.33;;;;;25.06;36.62;101678.78;5071130;27;45483;-77
2023/01/11 17:31:23;;;;;;;;;13.67;13.00;;;;;25.01;36.94;101675.69;5070474;28;45446;-77
2023/01/11 17:33:59;;;;;;;;;11.00;9.33;;;;;25.11;36.74;101683.75;5071022;27;47323;-77
2023/01/11 17:36:26;;;;;;;;;10.67;10.67;;;;;25.16;36.99;101683.28;5065528;27;45517;-79
2023/01/11 17:38:51;;;;;;;;;12.67;12.33;;;;;25.24;36.93;101692.38;5063856;28;45410;-77
2023/01/11 17:46:46;;;;;;;;;8.00;7.67;;;;;25.47;37.14;101697.28;5076523;27;45329;-76
2023/01/11 17:49:23;;;;;;;;;8.67;8.67;;;;;25.53;36.65;101693.94;5076149;27;45539;-76
2023/01/11 17:51:48;;;;;;;;;13.33;10.67;;;;;25.61;37.21;101695.03;5050238;28;45416;-76
2023/01/11 17:54:21;;;;;;;;;12.67;10.67;;;;;25.67;37.45;101694.41;5073016;28;45997;-76
2023/01/11 17:56:55;;;;;;;;;9.67;9.67;;;;;25.76;37.26;101701.56;5073498;28;45431;-76
2023/01/11 17:59:24;;;;;;;;;10.33;10.33;;;;;25.84;37.47;101692.66;5058986;27;45596;-76
2023/01/11 18:01:56;;;;;;;;;11.00;10.33;;;;;25.85;36.78;101685.31;5074932;27;45574;-74
2023/01/11 18:04:23;;;;;;;;;12.00;10.67;;;;;25.96;37.07;101700.50;5067877;27;45498;-73
2023/01/11 18:06:52;;;;;;;;;10.67;9.67;;;;;26.01;37.38;101699.03;5075251;28;45432;-74
2023/01/11 18:09:29;;;;;;;;;8.67;6.67;;;;;26.07;37.31;101691.22;5075182;28;45418;-74
2023/01/11 18:12:15;;;;;;;;;11.00;11.00;;;;;26.03;36.69;101683.38;5069966;28;45406;-74
2023/01/11 18:14:48;;;;;;;;;13.00;10.33;;;;;26.14;37.38;101684.97;5057357;28;46333;-75
2023/01/11 18:17:31;;;;;;;;;12.67;10.00;;;;;26.18;36.78;101678.19;5072074;27;45980;-74
2023/01/11 18:19:58;;;;;;;;;11.33;10.00;;;;;26.18;37.16;101683.63;5067696;27;46088;-75
2023/01/11 18:22:36;;;;;;;;;17.67;11.67;;;;;26.16;36.62;101684.81;5066595;28;45399;-75
2023/01/11 18:25:29;;;;;;;;;12.67;11.00;;;;;26.04;36.53;101676.91;5063582;28;45426;-75
2023/01/11 18:28:27;;;;;;;;;5.67;5.67;;;;;25.90;36.41;101664.78;5074047;28;45480;-75
2023/01/11 18:30:57;;;;;;;;;12.00;10.33;;;;;25.85;36.13;101675.31;5058402;28;45593;-75
2023/01/11 18:33:25;;;;;;;;;10.33;10.33;;;;;25.82;35.95;101678.34;5072490;27;46545;-76
2023/01/11 18:35:56;;;;;;;;;10.67;8.67;;;;;25.77;36.19;101672.53;5074540;27;46233;-75
2023/01/11 18:38:33;;;;;;;;;8.00;7.33;;;;;25.71;36.42;101671.31;5059731;28;45422;-75
2023/01/11 18:42:06;;;;;;;;;10.33;8.00;;;;;25.65;36.09;101671.94;5073665;28;45681;-75
2023/01/11 18:43:50;;;;;;;;;11.00;9.33;;;;;25.59;36.32;101675.31;5070684;28;45487;-75
2023/01/11 18:46:15;;;;;;;;;8.00;8.00;;;;;25.51;35.94;101671.50;5073444;27;45675;-76
2023/01/11 18:48:40;;;;;;;;;10.00;9.00;;;;;25.47;36.54;101680.13;5075159;28;45522;-75
2023/01/11 18:51:06;;;;;;;;;10.67;8.67;;;;;25.45;36.50;101676.72;5055453;27;51016;-75
2023/01/11 18:53:31;;;;;;;;;8.00;6.00;;;;;25.38;36.24;101671.09;5070376;28;48952;-75
2023/01/11 18:55:56;;;;;;;;;8.33;7.00;;;;;25.37;36.10;101667.50;5069186;27;47212;-76
2023/01/11 18:58:21;;;;;;;;;9.67;9.00;;;;;25.37;36.10;101682.94;5071302;28;48449;-75
2023/01/11 19:00:47;;;;;;;;;8.33;8.33;;;;;25.34;36.29;101694.16;5073447;27;46189;-73
2023/01/11 19:03:12;;;;;;;;;7.33;7.33;;;;;25.32;36.42;101691.59;5062720;27;48162;-73
2023/01/11 19:05:38;;;;;;;;;7.33;7.33;;;;;25.29;36.62;101683.72;5073134;27;45404;-74
2023/01/11 19:08:04;;;;;;;;;12.00;9.00;;;;;25.31;36.57;101689.88;5080191;27;46055;-74
2023/01/11 19:10:30;;;;;;;;;8.00;8.00;;;;;25.31;36.69;101695.31;5077086;27;45372;-75
2023/01/11 19:12:56;;;;;;;;;6.33;5.33;;;;;25.44;36.71;101710.34;5075274;28;45521;-74
2023/01/11 19:15:22;;;;;;;;;8.00;6.00;;;;;25.45;36.88;101714.75;5071873;27;45478;-74
2023/01/11 19:17:47;;;;;;;;;8.67;8.67;;;;;25.55;36.80;101711.94;5075287;28;46047;-74
2023/01/11 19:20:13;;;;;;;;;7.33;7.00;;;;;25.55;37.08;101703.81;5074745;27;45817;-73
2023/01/11 19:22:39;;;;;;;;;5.67;5.67;;;;;25.65;36.57;101707.28;5074235;27;45661;-76
2023/01/11 19:25:05;;;;;;;;;5.33;5.33;;;;;25.67;36.87;101701.72;5060875;28;45608;-75
2023/01/11 19:27:31;;;;;;;;;8.00;8.00;;;;;25.73;36.67;101710.06;5074463;28;46496;-72
2023/01/11 19:29:57;;;;;;;;;7.67;7.67;;;;;25.78;37.00;101717.75;5073169;28;45509;-73
2023/01/11 19:32:24;;;;;;;;;9.00;7.00;;;;;25.78;36.89;101705.00;5073407;28;45460;-73
2023/01/11 19:34:56;;;;;;;;;12.33;10.00;;;;;25.82;36.52;101702.81;5073304;27;45486;-73
2023/01/11 19:37:22;;;;;;;;;7.67;6.33;;;;;25.87;37.06;101710.50;5061609;28;45819;-73
2023/01/11 19:39:48;;;;;;;;;6.67;5.67;;;;;25.84;36.98;101703.53;5072975;28;45381;-74
2023/01/11 19:42:13;;;;;;;;;7.67;7.67;;;;;25.94;37.17;101708.84;5074560;28;45355;-72
2023/01/11 19:44:38;;;;;;;;;7.00;6.00;;;;;26.02;37.18;101717.03;5073513;28;45495;-72
2023/01/11 19:47:06;;;;;;;;;7.33;5.67;;;;;26.05;37.02;101711.28;5074549;28;45813;-72
2023/01/11 19:49:31;;;;;;;;;4.67;4.67;;;;;26.10;36.86;101704.47;5071954;27;45487;-72
2023/01/11 19:51:57;;;;;;;;;6.33;6.33;;;;;26.12;36.81;101700.56;5060326;27;45416;-72
2023/01/11 19:54:23;;;;;;;;;6.00;6.00;;;;;26.16;36.84;101701.97;5074431;28;45380;-72
2023/01/11 19:56:50;;;;;;;;;8.00;7.33;;;;;26.14;36.65;101687.69;5071838;28;45416;-72
2023/01/11 19:59:16;;;;;;;;;5.67;5.67;;;;;26.17;37.11;101692.78;5067783;28;45534;-75
2023/01/11 20:01:42;;;;;;;;;4.00;4.00;;;;;26.15;37.01;101686.66;5073762;27;45644;-75
2023/01/11 20:04:07;;;;;;;;;6.67;5.00;;;;;26.21;36.69;101697.91;5074444;27;45415;-76
2023/01/11 20:06:33;;;;;;;;;6.33;4.33;;;;;26.21;37.00;101687.88;5072557;28;45411;-74
2023/01/11 20:08:58;;;;;;;;;5.67;5.67;;;;;26.16;36.89;101677.47;5074907;27;45348;-74
2023/01/11 20:11:24;;;;;;;;;4.00;4.00;;;;;26.20;37.25;101694.34;5073755;27;45543;-75